sensor_id;sensor_type;location;lat;lon;timestamp;P1;durP1;ratioP1;P2;durP2;ratioP2
19776;SDS011;10047;42.490;26.012;2023-08-07T00:00:26;3.70;;;3.40;;
19776;SDS011;10047;42.490;26.012;2023-08-07T00:02:52;4.85;;;3.30;;
19776;SDS011;10047;42.490;26.012;2023-08-07T00:05:17;4.13;;;3.25;;
19776;SDS011;10047;42.490;26.012;2023-08-07T00:07:43;3.30;;;3.00;;
19776;SDS011;10047;42.490;26.012;2023-08-07T00:10:08;3.65;;;2.97;;
19776;SDS011;10047;42.490;26.012;2023-08-07T00:12:34;5.70;;;2.50;;
19776;SDS011;10047;42.490;26.012;2023-08-07T00:14:59;3.42;;;2.90;;
19776;SDS011;10047;42.490;26.012;2023-08-07T00:17:25;3.40;;;2.88;;
19776;SDS011;10047;42.490;26.012;2023-08-07T00:19:51;3.17;;;2.70;;
19776;SDS011;10047;42.490;26.012;2023-08-07T00:22:16;4.25;;;3.00;;
19776;SDS011;10047;42.490;26.012;2023-08-07T00:24:42;3.30;;;3.00;;
19776;SDS011;10047;42.490;26.012;2023-08-07T00:27:07;8.45;;;3.40;;
19776;SDS011;10047;42.490;26.012;2023-08-07T00:29:35;4.00;;;3.35;;
19776;SDS011;10047;42.490;26.012;2023-08-07T00:32:01;5.30;;;3.25;;
19776;SDS011;10047;42.490;26.012;2023-08-07T00:34:27;5.22;;;3.20;;
19776;SDS011;10047;42.490;26.012;2023-08-07T00:36:53;4.00;;;3.10;;
19776;SDS011;10047;42.490;26.012;2023-08-07T00:39:18;4.20;;;3.03;;
19776;SDS011;10047;42.490;26.012;2023-08-07T00:41:43;4.38;;;3.28;;
19776;SDS011;10047;42.490;26.012;2023-08-07T00:44:09;5.60;;;3.05;;
19776;SDS011;10047;42.490;26.012;2023-08-07T00:46:34;3.53;;;3.10;;
19776;SDS011;10047;42.490;26.012;2023-08-07T00:49:00;5.15;;;3.20;;
19776;SDS011;10047;42.490;26.012;2023-08-07T00:51:27;4.18;;;3.03;;
19776;SDS011;10047;42.490;26.012;2023-08-07T00:53:52;4.20;;;3.08;;
19776;SDS011;10047;42.490;26.012;2023-08-07T00:56:18;3.40;;;2.75;;
19776;SDS011;10047;42.490;26.012;2023-08-07T00:58:43;3.25;;;2.95;;
19776;SDS011;10047;42.490;26.012;2023-08-07T01:01:09;3.13;;;2.83;;
19776;SDS011;10047;42.490;26.012;2023-08-07T01:03:35;4.63;;;2.97;;
19776;SDS011;10047;42.490;26.012;2023-08-07T01:06:01;3.92;;;3.08;;
19776;SDS011;10047;42.490;26.012;2023-08-07T01:08:26;3.10;;;2.80;;
19776;SDS011;10047;42.490;26.012;2023-08-07T01:13:55;3.05;;;2.75;;
19776;SDS011;10047;42.490;26.012;2023-08-07T01:16:47;3.90;;;3.42;;
19776;SDS011;10047;42.490;26.012;2023-08-07T01:19:23;3.20;;;2.80;;
19776;SDS011;10047;42.490;26.012;2023-08-07T01:22:08;3.15;;;2.90;;
19776;SDS011;10047;42.490;26.012;2023-08-07T01:24:35;4.07;;;2.88;;
19776;SDS011;10047;42.490;26.012;2023-08-07T01:27:14;3.83;;;2.80;;
19776;SDS011;10047;42.490;26.012;2023-08-07T01:32:59;3.50;;;3.20;;
19776;SDS011;10047;42.490;26.012;2023-08-07T01:35:47;3.10;;;2.80;;
19776;SDS011;10047;42.490;26.012;2023-08-07T01:38:16;4.43;;;2.90;;
19776;SDS011;10047;42.490;26.012;2023-08-07T01:40:43;3.65;;;2.72;;
19776;SDS011;10047;42.490;26.012;2023-08-07T01:43:10;3.70;;;2.85;;
19776;SDS011;10047;42.490;26.012;2023-08-07T01:45:35;2.90;;;2.60;;
19776;SDS011;10047;42.490;26.012;2023-08-07T01:48:01;2.85;;;2.65;;
19776;SDS011;10047;42.490;26.012;2023-08-07T01:50:27;3.22;;;2.90;;
19776;SDS011;10047;42.490;26.012;2023-08-07T01:52:52;3.05;;;2.75;;
19776;SDS011;10047;42.490;26.012;2023-08-07T01:55:19;4.22;;;2.90;;
19776;SDS011;10047;42.490;26.012;2023-08-07T01:57:45;4.72;;;3.10;;
19776;SDS011;10047;42.490;26.012;2023-08-07T02:00:11;3.78;;;2.97;;
19776;SDS011;10047;42.490;26.012;2023-08-07T02:02:36;3.30;;;3.00;;
19776;SDS011;10047;42.490;26.012;2023-08-07T02:05:02;5.35;;;3.45;;
19776;SDS011;10047;42.490;26.012;2023-08-07T02:07:28;3.60;;;3.30;;
19776;SDS011;10047;42.490;26.012;2023-08-07T02:09:54;3.50;;;3.10;;
19776;SDS011;10047;42.490;26.012;2023-08-07T02:12:19;3.30;;;2.90;;
19776;SDS011;10047;42.490;26.012;2023-08-07T02:14:45;3.17;;;2.88;;
19776;SDS011;10047;42.490;26.012;2023-08-07T02:17:10;3.72;;;3.08;;
19776;SDS011;10047;42.490;26.012;2023-08-07T02:19:36;5.07;;;2.80;;
19776;SDS011;10047;42.490;26.012;2023-08-07T02:22:01;4.78;;;3.10;;
19776;SDS011;10047;42.490;26.012;2023-08-07T02:24:27;4.95;;;2.65;;
19776;SDS011;10047;42.490;26.012;2023-08-07T02:26:53;2.60;;;2.30;;
19776;SDS011;10047;42.490;26.012;2023-08-07T02:29:18;3.03;;;2.35;;
19776;SDS011;10047;42.490;26.012;2023-08-07T02:31:44;3.58;;;2.38;;
19776;SDS011;10047;42.490;26.012;2023-08-07T02:34:09;4.80;;;2.63;;
19776;SDS011;10047;42.490;26.012;2023-08-07T02:36:34;2.97;;;2.25;;
19776;SDS011;10047;42.490;26.012;2023-08-07T02:39:00;2.95;;;2.42;;
19776;SDS011;10047;42.490;26.012;2023-08-07T02:41:25;4.10;;;2.50;;
19776;SDS011;10047;42.490;26.012;2023-08-07T02:43:51;2.90;;;2.53;;
19776;SDS011;10047;42.490;26.012;2023-08-07T02:46:16;3.00;;;2.30;;
19776;SDS011;10047;42.490;26.012;2023-08-07T02:48:43;3.60;;;2.65;;
19776;SDS011;10047;42.490;26.012;2023-08-07T02:51:08;2.95;;;2.65;;
19776;SDS011;10047;42.490;26.012;2023-08-07T02:53:34;2.58;;;2.38;;
19776;SDS011;10047;42.490;26.012;2023-08-07T02:55:59;2.67;;;2.30;;
19776;SDS011;10047;42.490;26.012;2023-08-07T02:58:25;3.55;;;2.45;;
19776;SDS011;10047;42.490;26.012;2023-08-07T03:00:50;2.78;;;2.22;;
19776;SDS011;10047;42.490;26.012;2023-08-07T03:03:15;3.38;;;2.38;;
19776;SDS011;10047;42.490;26.012;2023-08-07T03:05:50;3.55;;;2.22;;
19776;SDS011;10047;42.490;26.012;2023-08-07T03:08:16;3.35;;;2.30;;
19776;SDS011;10047;42.490;26.012;2023-08-07T03:10:42;3.25;;;2.33;;
19776;SDS011;10047;42.490;26.012;2023-08-07T03:13:14;4.03;;;2.45;;
19776;SDS011;10047;42.490;26.012;2023-08-07T03:15:39;2.50;;;2.30;;
19776;SDS011;10047;42.490;26.012;2023-08-07T03:18:05;3.05;;;2.47;;
19776;SDS011;10047;42.490;26.012;2023-08-07T03:20:30;2.33;;;2.10;;
19776;SDS011;10047;42.490;26.012;2023-08-07T03:22:55;3.28;;;2.00;;
19776;SDS011;10047;42.490;26.012;2023-08-07T03:25:21;3.17;;;2.30;;
19776;SDS011;10047;42.490;26.012;2023-08-07T03:27:47;4.13;;;2.42;;
19776;SDS011;10047;42.490;26.012;2023-08-07T03:30:13;2.80;;;2.22;;
19776;SDS011;10047;42.490;26.012;2023-08-07T03:32:38;3.83;;;2.58;;
19776;SDS011;10047;42.490;26.012;2023-08-07T03:35:03;2.63;;;2.42;;
19776;SDS011;10047;42.490;26.012;2023-08-07T03:37:29;2.85;;;2.47;;
19776;SDS011;10047;42.490;26.012;2023-08-07T03:39:55;2.70;;;2.35;;
19776;SDS011;10047;42.490;26.012;2023-08-07T03:42:20;2.95;;;2.42;;
19776;SDS011;10047;42.490;26.012;2023-08-07T03:44:45;3.38;;;2.70;;
19776;SDS011;10047;42.490;26.012;2023-08-07T03:47:11;4.68;;;2.72;;
19776;SDS011;10047;42.490;26.012;2023-08-07T03:49:36;3.08;;;2.55;;
19776;SDS011;10047;42.490;26.012;2023-08-07T03:52:02;3.22;;;2.47;;
19776;SDS011;10047;42.490;26.012;2023-08-07T03:54:27;2.83;;;2.53;;
19776;SDS011;10047;42.490;26.012;2023-08-07T03:56:53;2.70;;;2.50;;
19776;SDS011;10047;42.490;26.012;2023-08-07T03:59:18;4.07;;;2.80;;
19776;SDS011;10047;42.490;26.012;2023-08-07T04:01:43;3.90;;;2.60;;
19776;SDS011;10047;42.490;26.012;2023-08-07T04:04:09;4.43;;;2.70;;
19776;SDS011;10047;42.490;26.012;2023-08-07T04:06:34;3.65;;;2.38;;
19776;SDS011;10047;42.490;26.012;2023-08-07T04:09:00;2.90;;;2.70;;
19776;SDS011;10047;42.490;26.012;2023-08-07T04:11:26;2.88;;;2.45;;
19776;SDS011;10047;42.490;26.012;2023-08-07T04:13:52;3.10;;;2.70;;
19776;SDS011;10047;42.490;26.012;2023-08-07T04:16:17;4.15;;;2.75;;
19776;SDS011;10047;42.490;26.012;2023-08-07T04:18:43;4.15;;;2.72;;
19776;SDS011;10047;42.490;26.012;2023-08-07T04:21:08;3.80;;;2.90;;
19776;SDS011;10047;42.490;26.012;2023-08-07T04:23:33;3.13;;;2.70;;
19776;SDS011;10047;42.490;26.012;2023-08-07T04:25:59;4.43;;;2.85;;
19776;SDS011;10047;42.490;26.012;2023-08-07T04:28:25;4.78;;;3.05;;
19776;SDS011;10047;42.490;26.012;2023-08-07T04:30:52;3.40;;;3.10;;
19776;SDS011;10047;42.490;26.012;2023-08-07T04:33:18;3.40;;;2.83;;
19776;SDS011;10047;42.490;26.012;2023-08-07T04:35:45;3.75;;;2.80;;
19776;SDS011;10047;42.490;26.012;2023-08-07T04:38:11;5.03;;;3.00;;
19776;SDS011;10047;42.490;26.012;2023-08-07T04:40:38;4.10;;;3.00;;
19776;SDS011;10047;42.490;26.012;2023-08-07T04:43:08;5.90;;;3.28;;
19776;SDS011;10047;42.490;26.012;2023-08-07T04:45:34;4.18;;;2.95;;
19776;SDS011;10047;42.490;26.012;2023-08-07T04:47:59;3.40;;;3.10;;
19776;SDS011;10047;42.490;26.012;2023-08-07T04:50:25;3.13;;;2.80;;
19776;SDS011;10047;42.490;26.012;2023-08-07T04:52:51;3.70;;;2.70;;
19776;SDS011;10047;42.490;26.012;2023-08-07T04:55:16;3.60;;;2.53;;
19776;SDS011;10047;42.490;26.012;2023-08-07T04:57:41;3.70;;;3.17;;
19776;SDS011;10047;42.490;26.012;2023-08-07T05:00:08;3.55;;;2.78;;
19776;SDS011;10047;42.490;26.012;2023-08-07T05:02:34;3.00;;;2.70;;
19776;SDS011;10047;42.490;26.012;2023-08-07T05:05:00;5.03;;;2.70;;
19776;SDS011;10047;42.490;26.012;2023-08-07T05:07:25;4.07;;;2.42;;
19776;SDS011;10047;42.490;26.012;2023-08-07T05:09:51;6.72;;;2.50;;
19776;SDS011;10047;42.490;26.012;2023-08-07T05:12:16;4.30;;;2.60;;
19776;SDS011;10047;42.490;26.012;2023-08-07T05:14:41;4.25;;;2.55;;
19776;SDS011;10047;42.490;26.012;2023-08-07T05:17:07;3.33;;;2.50;;
19776;SDS011;10047;42.490;26.012;2023-08-07T05:19:32;4.40;;;2.35;;
19776;SDS011;10047;42.490;26.012;2023-08-07T05:21:58;3.85;;;2.78;;
19776;SDS011;10047;42.490;26.012;2023-08-07T05:24:23;2.83;;;2.53;;
19776;SDS011;10047;42.490;26.012;2023-08-07T05:26:48;4.20;;;2.63;;
19776;SDS011;10047;42.490;26.012;2023-08-07T05:29:14;4.00;;;2.25;;
19776;SDS011;10047;42.490;26.012;2023-08-07T05:31:39;3.35;;;2.78;;
19776;SDS011;10047;42.490;26.012;2023-08-07T05:34:04;2.80;;;2.35;;
19776;SDS011;10047;42.490;26.012;2023-08-07T05:36:31;4.90;;;2.60;;
19776;SDS011;10047;42.490;26.012;2023-08-07T05:38:58;4.55;;;2.50;;
19776;SDS011;10047;42.490;26.012;2023-08-07T05:41:23;2.80;;;2.20;;
19776;SDS011;10047;42.490;26.012;2023-08-07T05:43:48;3.58;;;2.47;;
19776;SDS011;10047;42.490;26.012;2023-08-07T05:46:14;3.15;;;2.30;;
19776;SDS011;10047;42.490;26.012;2023-08-07T05:48:39;3.15;;;2.15;;
19776;SDS011;10047;42.490;26.012;2023-08-07T05:51:05;3.25;;;2.00;;
19776;SDS011;10047;42.490;26.012;2023-08-07T05:53:32;2.30;;;2.10;;
19776;SDS011;10047;42.490;26.012;2023-08-07T05:55:57;4.40;;;2.30;;
19776;SDS011;10047;42.490;26.012;2023-08-07T05:58:23;2.00;;;1.90;;
19776;SDS011;10047;42.490;26.012;2023-08-07T06:00:48;2.30;;;2.08;;
19776;SDS011;10047;42.490;26.012;2023-08-07T06:03:14;4.28;;;3.10;;
19776;SDS011;10047;42.490;26.012;2023-08-07T06:05:39;2.72;;;2.53;;
19776;SDS011;10047;42.490;26.012;2023-08-07T06:08:05;3.65;;;2.20;;
19776;SDS011;10047;42.490;26.012;2023-08-07T06:10:30;3.50;;;2.28;;
19776;SDS011;10047;42.490;26.012;2023-08-07T06:12:56;4.53;;;2.00;;
19776;SDS011;10047;42.490;26.012;2023-08-07T06:15:21;2.33;;;2.00;;
19776;SDS011;10047;42.490;26.012;2023-08-07T06:17:46;2.20;;;2.00;;
19776;SDS011;10047;42.490;26.012;2023-08-07T06:20:12;3.83;;;2.00;;
19776;SDS011;10047;42.490;26.012;2023-08-07T06:22:39;2.40;;;2.20;;
19776;SDS011;10047;42.490;26.012;2023-08-07T06:25:05;5.47;;;2.20;;
19776;SDS011;10047;42.490;26.012;2023-08-07T06:27:31;3.25;;;1.73;;
19776;SDS011;10047;42.490;26.012;2023-08-07T06:29:57;3.35;;;2.00;;
19776;SDS011;10047;42.490;26.012;2023-08-07T06:32:22;3.67;;;2.00;;
19776;SDS011;10047;42.490;26.012;2023-08-07T06:34:48;4.32;;;1.83;;
19776;SDS011;10047;42.490;26.012;2023-08-07T06:37:13;2.97;;;1.90;;
19776;SDS011;10047;42.490;26.012;2023-08-07T06:39:39;5.22;;;2.80;;
19776;SDS011;10047;42.490;26.012;2023-08-07T06:42:04;3.45;;;2.30;;
19776;SDS011;10047;42.490;26.012;2023-08-07T06:44:30;2.10;;;1.90;;
19776;SDS011;10047;42.490;26.012;2023-08-07T06:46:55;4.65;;;1.80;;
19776;SDS011;10047;42.490;26.012;2023-08-07T06:49:21;2.40;;;2.20;;
19776;SDS011;10047;42.490;26.012;2023-08-07T06:51:46;2.72;;;1.60;;
19776;SDS011;10047;42.490;26.012;2023-08-07T06:54:11;5.28;;;2.25;;
19776;SDS011;10047;42.490;26.012;2023-08-07T06:56:37;2.63;;;2.35;;
19776;SDS011;10047;42.490;26.012;2023-08-07T06:59:05;3.05;;;2.30;;
19776;SDS011;10047;42.490;26.012;2023-08-07T07:01:31;3.22;;;1.75;;
19776;SDS011;10047;42.490;26.012;2023-08-07T07:03:57;3.25;;;1.80;;
19776;SDS011;10047;42.490;26.012;2023-08-07T07:06:22;2.30;;;1.50;;
19776;SDS011;10047;42.490;26.012;2023-08-07T07:08:50;1.67;;;1.50;;
19776;SDS011;10047;42.490;26.012;2023-08-07T07:11:19;1.90;;;1.60;;
19776;SDS011;10047;42.490;26.012;2023-08-07T07:13:44;2.00;;;1.60;;
19776;SDS011;10047;42.490;26.012;2023-08-07T07:16:10;1.67;;;1.42;;
19776;SDS011;10047;42.490;26.012;2023-08-07T07:18:36;1.60;;;1.50;;
19776;SDS011;10047;42.490;26.012;2023-08-07T07:21:02;2.20;;;1.40;;
19776;SDS011;10047;42.490;26.012;2023-08-07T07:23:27;1.98;;;1.25;;
19776;SDS011;10047;42.490;26.012;2023-08-07T07:25:53;3.00;;;1.52;;
19776;SDS011;10047;42.490;26.012;2023-08-07T07:28:19;1.75;;;1.55;;
19776;SDS011;10047;42.490;26.012;2023-08-07T07:30:44;1.75;;;1.50;;
19776;SDS011;10047;42.490;26.012;2023-08-07T07:33:09;6.15;;;1.80;;
19776;SDS011;10047;42.490;26.012;2023-08-07T07:35:38;1.30;;;1.20;;
19776;SDS011;10047;42.490;26.012;2023-08-07T07:38:04;1.63;;;1.20;;
19776;SDS011;10047;42.490;26.012;2023-08-07T07:40:29;3.65;;;1.40;;
19776;SDS011;10047;42.490;26.012;2023-08-07T07:42:55;2.00;;;1.50;;
19776;SDS011;10047;42.490;26.012;2023-08-07T07:45:20;1.88;;;1.30;;
19776;SDS011;10047;42.490;26.012;2023-08-07T07:47:46;2.70;;;1.13;;
19776;SDS011;10047;42.490;26.012;2023-08-07T07:50:11;5.80;;;1.10;;
19776;SDS011;10047;42.490;26.012;2023-08-07T07:52:38;0.93;;;0.90;;
19776;SDS011;10047;42.490;26.012;2023-08-07T07:55:03;3.72;;;1.20;;
19776;SDS011;10047;42.490;26.012;2023-08-07T07:57:30;1.30;;;1.20;;
19776;SDS011;10047;42.490;26.012;2023-08-07T07:59:55;2.00;;;0.90;;
19776;SDS011;10047;42.490;26.012;2023-08-07T08:02:21;4.75;;;1.60;;
19776;SDS011;10047;42.490;26.012;2023-08-07T08:04:48;1.50;;;1.08;;
19776;SDS011;10047;42.490;26.012;2023-08-07T08:07:13;2.03;;;1.10;;
19776;SDS011;10047;42.490;26.012;2023-08-07T08:09:38;1.45;;;1.10;;
19776;SDS011;10047;42.490;26.012;2023-08-07T08:12:04;3.33;;;1.10;;
19776;SDS011;10047;42.490;26.012;2023-08-07T08:14:30;2.60;;;1.05;;
19776;SDS011;10047;42.490;26.012;2023-08-07T08:16:55;3.90;;;1.38;;
19776;SDS011;10047;42.490;26.012;2023-08-07T08:19:20;2.65;;;1.30;;
19776;SDS011;10047;42.490;26.012;2023-08-07T08:21:46;1.00;;;0.93;;
19776;SDS011;10047;42.490;26.012;2023-08-07T08:24:11;1.42;;;1.00;;
19776;SDS011;10047;42.490;26.012;2023-08-07T08:26:37;2.55;;;1.00;;
19776;SDS011;10047;42.490;26.012;2023-08-07T08:29:02;3.10;;;1.23;;
19776;SDS011;10047;42.490;26.012;2023-08-07T08:31:29;1.15;;;0.93;;
19776;SDS011;10047;42.490;26.012;2023-08-07T08:33:55;2.20;;;0.90;;
19776;SDS011;10047;42.490;26.012;2023-08-07T08:36:20;0.75;;;0.75;;
19776;SDS011;10047;42.490;26.012;2023-08-07T08:38:46;2.22;;;0.80;;
19776;SDS011;10047;42.490;26.012;2023-08-07T08:41:13;1.63;;;0.70;;
19776;SDS011;10047;42.490;26.012;2023-08-07T08:43:38;3.13;;;0.90;;
19776;SDS011;10047;42.490;26.012;2023-08-07T08:46:06;2.35;;;1.20;;
19776;SDS011;10047;42.490;26.012;2023-08-07T08:48:35;1.95;;;0.77;;
19776;SDS011;10047;42.490;26.012;2023-08-07T08:51:03;1.50;;;1.25;;
19776;SDS011;10047;42.490;26.012;2023-08-07T08:53:30;2.15;;;0.98;;
19776;SDS011;10047;42.490;26.012;2023-08-07T08:55:57;2.13;;;0.80;;
19776;SDS011;10047;42.490;26.012;2023-08-07T08:58:22;0.80;;;0.70;;
19776;SDS011;10047;42.490;26.012;2023-08-07T09:00:48;2.03;;;1.02;;
19776;SDS011;10047;42.490;26.012;2023-08-07T09:03:14;0.95;;;0.80;;
19776;SDS011;10047;42.490;26.012;2023-08-07T09:05:40;2.45;;;0.70;;
19776;SDS011;10047;42.490;26.012;2023-08-07T09:08:06;1.05;;;0.70;;
19776;SDS011;10047;42.490;26.012;2023-08-07T09:10:33;2.03;;;0.60;;
19776;SDS011;10047;42.490;26.012;2023-08-07T09:13:01;6.32;;;1.08;;
19776;SDS011;10047;42.490;26.012;2023-08-07T09:15:31;0.93;;;0.60;;
19776;SDS011;10047;42.490;26.012;2023-08-07T09:17:58;0.80;;;0.52;;
19776;SDS011;10047;42.490;26.012;2023-08-07T09:20:24;0.50;;;0.50;;
19776;SDS011;10047;42.490;26.012;2023-08-07T09:22:51;1.65;;;0.70;;
19776;SDS011;10047;42.490;26.012;2023-08-07T09:27:58;1.17;;;0.60;;
19776;SDS011;10047;42.490;26.012;2023-08-07T09:30:26;2.97;;;0.93;;
19776;SDS011;10047;42.490;26.012;2023-08-07T09:32:53;1.27;;;0.90;;
19776;SDS011;10047;42.490;26.012;2023-08-07T09:35:21;2.90;;;0.70;;
19776;SDS011;10047;42.490;26.012;2023-08-07T09:37:46;1.17;;;0.73;;
19776;SDS011;10047;42.490;26.012;2023-08-07T09:40:12;2.45;;;0.80;;
19776;SDS011;10047;42.490;26.012;2023-08-07T09:42:40;0.70;;;0.63;;
19776;SDS011;10047;42.490;26.012;2023-08-07T09:45:18;2.35;;;0.90;;
19776;SDS011;10047;42.490;26.012;2023-08-07T09:47:57;1.15;;;0.70;;
19776;SDS011;10047;42.490;26.012;2023-08-07T09:50:31;1.20;;;0.60;;
19776;SDS011;10047;42.490;26.012;2023-08-07T09:52:57;2.22;;;1.00;;
19776;SDS011;10047;42.490;26.012;2023-08-07T09:55:26;2.70;;;0.80;;
19776;SDS011;10047;42.490;26.012;2023-08-07T09:57:52;5.45;;;0.80;;
19776;SDS011;10047;42.490;26.012;2023-08-07T10:00:18;1.10;;;0.82;;
19776;SDS011;10047;42.490;26.012;2023-08-07T10:02:47;1.40;;;0.80;;
19776;SDS011;10047;42.490;26.012;2023-08-07T10:05:13;1.10;;;0.70;;
19776;SDS011;10047;42.490;26.012;2023-08-07T10:07:39;0.60;;;0.60;;
19776;SDS011;10047;42.490;26.012;2023-08-07T10:10:06;1.70;;;0.75;;
19776;SDS011;10047;42.490;26.012;2023-08-07T10:12:32;2.47;;;0.80;;
19776;SDS011;10047;42.490;26.012;2023-08-07T10:15:01;1.65;;;0.90;;
19776;SDS011;10047;42.490;26.012;2023-08-07T10:17:28;1.35;;;0.80;;
19776;SDS011;10047;42.490;26.012;2023-08-07T10:19:55;1.63;;;0.85;;
19776;SDS011;10047;42.490;26.012;2023-08-07T10:22:25;1.90;;;0.73;;
19776;SDS011;10047;42.490;26.012;2023-08-07T10:24:52;0.90;;;0.80;;
19776;SDS011;10047;42.490;26.012;2023-08-07T10:27:18;0.80;;;0.80;;
19776;SDS011;10047;42.490;26.012;2023-08-07T10:29:48;1.10;;;1.00;;
19776;SDS011;10047;42.490;26.012;2023-08-07T10:32:16;2.30;;;0.90;;
19776;SDS011;10047;42.490;26.012;2023-08-07T10:34:47;1.00;;;0.90;;
19776;SDS011;10047;42.490;26.012;2023-08-07T10:40:03;0.60;;;0.60;;
19776;SDS011;10047;42.490;26.012;2023-08-07T10:45:18;1.10;;;0.70;;
19776;SDS011;10047;42.490;26.012;2023-08-07T10:47:56;0.95;;;0.80;;
19776;SDS011;10047;42.490;26.012;2023-08-07T10:50:32;1.25;;;0.75;;
19776;SDS011;10047;42.490;26.012;2023-08-07T10:53:02;0.70;;;0.70;;
19776;SDS011;10047;42.490;26.012;2023-08-07T10:55:42;0.98;;;0.82;;
19776;SDS011;10047;42.490;26.012;2023-08-07T10:58:20;1.40;;;0.77;;
19776;SDS011;10047;42.490;26.012;2023-08-07T11:04:04;2.05;;;0.80;;
19776;SDS011;10047;42.490;26.012;2023-08-07T11:06:32;1.23;;;0.70;;
19776;SDS011;10047;42.490;26.012;2023-08-07T11:08:59;0.80;;;0.80;;
19776;SDS011;10047;42.490;26.012;2023-08-07T11:11:29;0.85;;;0.77;;
19776;SDS011;10047;42.490;26.012;2023-08-07T11:13:55;2.15;;;1.05;;
19776;SDS011;10047;42.490;26.012;2023-08-07T11:16:20;1.15;;;0.68;;
19776;SDS011;10047;42.490;26.012;2023-08-07T11:18:46;0.95;;;0.90;;
19776;SDS011;10047;42.490;26.012;2023-08-07T11:21:12;1.13;;;0.90;;
19776;SDS011;10047;42.490;26.012;2023-08-07T11:23:38;1.92;;;0.93;;
19776;SDS011;10047;42.490;26.012;2023-08-07T11:26:05;1.77;;;0.75;;
19776;SDS011;10047;42.490;26.012;2023-08-07T11:28:31;1.02;;;0.80;;
19776;SDS011;10047;42.490;26.012;2023-08-07T11:30:56;1.02;;;0.88;;
19776;SDS011;10047;42.490;26.012;2023-08-07T11:33:26;1.35;;;0.90;;
19776;SDS011;10047;42.490;26.012;2023-08-07T11:35:52;0.80;;;0.70;;
19776;SDS011;10047;42.490;26.012;2023-08-07T11:38:36;1.95;;;0.90;;
19776;SDS011;10047;42.490;26.012;2023-08-07T11:41:04;1.00;;;0.77;;
19776;SDS011;10047;42.490;26.012;2023-08-07T11:43:31;2.53;;;0.95;;
19776;SDS011;10047;42.490;26.012;2023-08-07T11:45:58;1.23;;;1.10;;
19776;SDS011;10047;42.490;26.012;2023-08-07T11:48:26;0.70;;;0.68;;
19776;SDS011;10047;42.490;26.012;2023-08-07T11:50:54;1.20;;;0.90;;
19776;SDS011;10047;42.490;26.012;2023-08-07T11:53:20;2.08;;;1.30;;
19776;SDS011;10047;42.490;26.012;2023-08-07T11:55:47;1.10;;;1.00;;
19776;SDS011;10047;42.490;26.012;2023-08-07T11:58:16;1.00;;;0.90;;
19776;SDS011;10047;42.490;26.012;2023-08-07T12:00:43;1.60;;;1.00;;
19776;SDS011;10047;42.490;26.012;2023-08-07T12:05:58;0.80;;;0.80;;
19776;SDS011;10047;42.490;26.012;2023-08-07T12:08:39;0.88;;;0.82;;
19776;SDS011;10047;42.490;26.012;2023-08-07T12:11:06;1.00;;;0.90;;
19776;SDS011;10047;42.490;26.012;2023-08-07T12:13:36;1.95;;;0.90;;
19776;SDS011;10047;42.490;26.012;2023-08-07T12:16:03;1.10;;;1.00;;
19776;SDS011;10047;42.490;26.012;2023-08-07T12:18:29;1.38;;;1.27;;
19776;SDS011;10047;42.490;26.012;2023-08-07T12:21:02;1.67;;;0.90;;
19776;SDS011;10047;42.490;26.012;2023-08-07T12:23:29;1.65;;;0.90;;
19776;SDS011;10047;42.490;26.012;2023-08-07T12:25:58;1.90;;;0.80;;
19776;SDS011;10047;42.490;26.012;2023-08-07T12:28:23;1.50;;;1.00;;
19776;SDS011;10047;42.490;26.012;2023-08-07T12:30:50;1.00;;;0.90;;
19776;SDS011;10047;42.490;26.012;2023-08-07T12:33:16;1.83;;;1.10;;
19776;SDS011;10047;42.490;26.012;2023-08-07T12:35:41;1.00;;;0.90;;
19776;SDS011;10047;42.490;26.012;2023-08-07T12:38:07;1.40;;;1.00;;
19776;SDS011;10047;42.490;26.012;2023-08-07T12:40:34;1.15;;;0.82;;
19776;SDS011;10047;42.490;26.012;2023-08-07T12:43:03;1.10;;;1.00;;
19776;SDS011;10047;42.490;26.012;2023-08-07T12:45:29;1.05;;;0.90;;
19776;SDS011;10047;42.490;26.012;2023-08-07T12:47:55;1.75;;;0.88;;
19776;SDS011;10047;42.490;26.012;2023-08-07T12:50:21;1.17;;;0.93;;
19776;SDS011;10047;42.490;26.012;2023-08-07T12:52:46;1.05;;;0.90;;
19776;SDS011;10047;42.490;26.012;2023-08-07T12:55:12;1.35;;;0.88;;
19776;SDS011;10047;42.490;26.012;2023-08-07T12:57:41;2.78;;;0.90;;
19776;SDS011;10047;42.490;26.012;2023-08-07T13:00:08;2.33;;;1.10;;
19776;SDS011;10047;42.490;26.012;2023-08-07T13:02:37;1.35;;;0.90;;
19776;SDS011;10047;42.490;26.012;2023-08-07T13:05:03;1.50;;;1.00;;
19776;SDS011;10047;42.490;26.012;2023-08-07T13:07:29;1.95;;;0.98;;
19776;SDS011;10047;42.490;26.012;2023-08-07T13:09:54;5.70;;;1.60;;
19776;SDS011;10047;42.490;26.012;2023-08-07T13:12:20;1.52;;;1.10;;
19776;SDS011;10047;42.490;26.012;2023-08-07T13:14:46;1.70;;;1.00;;
19776;SDS011;10047;42.490;26.012;2023-08-07T13:17:11;3.42;;;1.63;;
19776;SDS011;10047;42.490;26.012;2023-08-07T13:19:36;1.50;;;1.05;;
19776;SDS011;10047;42.490;26.012;2023-08-07T13:22:02;2.05;;;0.80;;
19776;SDS011;10047;42.490;26.012;2023-08-07T13:24:27;1.80;;;0.90;;
19776;SDS011;10047;42.490;26.012;2023-08-07T13:26:53;1.00;;;0.90;;
19776;SDS011;10047;42.490;26.012;2023-08-07T13:29:18;10.48;;;1.10;;
19776;SDS011;10047;42.490;26.012;2023-08-07T13:31:44;2.47;;;1.00;;
19776;SDS011;10047;42.490;26.012;2023-08-07T13:34:11;1.23;;;1.00;;
19776;SDS011;10047;42.490;26.012;2023-08-07T13:36:37;1.88;;;0.82;;
19776;SDS011;10047;42.490;26.012;2023-08-07T13:39:06;2.17;;;0.80;;
19776;SDS011;10047;42.490;26.012;2023-08-07T13:41:32;0.93;;;0.90;;
19776;SDS011;10047;42.490;26.012;2023-08-07T13:43:58;1.65;;;1.10;;
19776;SDS011;10047;42.490;26.012;2023-08-07T13:46:23;1.30;;;1.10;;
19776;SDS011;10047;42.490;26.012;2023-08-07T13:48:49;1.20;;;0.95;;
19776;SDS011;10047;42.490;26.012;2023-08-07T13:51:14;1.90;;;0.90;;
19776;SDS011;10047;42.490;26.012;2023-08-07T13:53:41;2.35;;;0.88;;
19776;SDS011;10047;42.490;26.012;2023-08-07T13:56:07;1.63;;;1.00;;
19776;SDS011;10047;42.490;26.012;2023-08-07T13:58:36;1.63;;;1.02;;
19776;SDS011;10047;42.490;26.012;2023-08-07T14:01:01;2.25;;;1.10;;
19776;SDS011;10047;42.490;26.012;2023-08-07T14:03:27;3.15;;;1.10;;
19776;SDS011;10047;42.490;26.012;2023-08-07T14:05:52;1.70;;;1.10;;
19776;SDS011;10047;42.490;26.012;2023-08-07T14:08:17;1.55;;;1.10;;
19776;SDS011;10047;42.490;26.012;2023-08-07T14:10:43;1.05;;;0.85;;
19776;SDS011;10047;42.490;26.012;2023-08-07T14:13:09;1.20;;;0.93;;
19776;SDS011;10047;42.490;26.012;2023-08-07T14:15:35;1.13;;;1.00;;
19776;SDS011;10047;42.490;26.012;2023-08-07T14:18:01;3.05;;;0.98;;
19776;SDS011;10047;42.490;26.012;2023-08-07T14:20:26;1.48;;;0.88;;
19776;SDS011;10047;42.490;26.012;2023-08-07T14:22:52;2.35;;;1.35;;
19776;SDS011;10047;42.490;26.012;2023-08-07T14:25:18;1.38;;;1.10;;
19776;SDS011;10047;42.490;26.012;2023-08-07T14:27:46;1.38;;;1.00;;
19776;SDS011;10047;42.490;26.012;2023-08-07T14:30:12;1.15;;;1.00;;
19776;SDS011;10047;42.490;26.012;2023-08-07T14:32:37;1.35;;;1.10;;
19776;SDS011;10047;42.490;26.012;2023-08-07T14:35:03;2.05;;;1.20;;
19776;SDS011;10047;42.490;26.012;2023-08-07T14:37:29;1.40;;;1.17;;
19776;SDS011;10047;42.490;26.012;2023-08-07T14:39:54;2.38;;;1.20;;
19776;SDS011;10047;42.490;26.012;2023-08-07T14:42:20;1.35;;;1.08;;
19776;SDS011;10047;42.490;26.012;2023-08-07T14:44:45;1.40;;;1.10;;
19776;SDS011;10047;42.490;26.012;2023-08-07T14:47:11;1.33;;;1.00;;
19776;SDS011;10047;42.490;26.012;2023-08-07T14:49:36;1.20;;;0.80;;